Time;durP1;ratioP1;P1;durP2;ratioP2;P2;SDS_P1;SDS_P2;PMS_P1;PMS_P2;Temp;Humidity;BMP_temperature;BMP_pressure;BME280_temperature;BME280_humidity;BME280_pressure;Samples;Min_cycle;Max_cycle;Signal;HPM_P1;HPM_P2
2022/11/13 00:00:29;;;;;;;58.63;9.70;;;6.80;1.00;;;;;;5075260;28;20920;-80
2022/11/13 00:03:06;;;;;;;70.40;9.37;;;6.80;1.00;;;;;;5081456;28;20412;-80
2022/11/13 00:05:42;;;;;;;45.20;9.67;;;6.80;1.00;;;;;;5080271;28;20415;-80
2022/11/13 00:08:23;;;;;;;45.37;9.20;;;6.80;1.00;;;;;;5089192;28;20468;-80
2022/11/13 00:10:50;;;;;;;72.60;12.23;;;6.80;1.00;;;;;;5091269;28;20848;-80
2022/11/13 00:13:53;;;;;;;74.63;11.20;;;6.80;1.00;;;;;;5080264;28;20498;-82
2022/11/13 00:19:59;;;;;;;79.90;11.50;;;6.80;1.00;;;;;;5075501;28;20420;-83
2022/11/13 00:22:41;;;;;;;65.23;12.70;;;6.80;1.00;;;;;;5073274;28;20502;-83
2022/11/13 00:25:12;;;;;;;73.40;12.20;;;6.70;1.00;;;;;;5085245;28;20959;-83
2022/11/13 00:28:05;;;;;;;96.03;11.93;;;6.70;1.00;;;;;;5077180;28;20409;-83
2022/11/13 00:30:36;;;;;;;56.43;11.53;;;6.70;1.00;;;;;;5073724;28;20409;-80
2022/11/13 00:33:05;;;;;;;46.73;10.57;;;6.70;1.00;;;;;;5078989;28;20821;-80
2022/11/13 00:35:53;;;;;;;101.50;11.97;;;6.60;1.00;;;;;;5081222;28;20421;-80
2022/11/13 00:38:19;;;;;;;61.87;11.83;;;6.60;1.00;;;;;;5073657;28;20432;-80
2022/11/13 00:40:47;;;;;;;50.43;11.50;;;6.50;1.00;;;;;;5079105;28;20436;-80
2022/11/13 00:43:59;;;;;;;71.33;11.00;;;6.50;1.00;;;;;;5081674;28;20950;-80
2022/11/13 00:47:05;;;;;;;41.53;10.80;;;6.50;1.00;;;;;;5071795;28;20432;-83
2022/11/13 00:52:53;;;;;;;30.43;10.27;;;6.40;1.00;;;;;;5079542;28;20935;-82
2022/11/13 00:55:24;;;;;;;96.57;12.27;;;6.30;1.00;;;;;;5093202;28;20442;-82
2022/11/13 00:58:41;;;;;;;81.83;12.30;;;6.30;1.00;;;;;;5086663;28;20217;-83
2022/11/13 01:01:29;;;;;;;74.93;11.50;;;6.30;1.00;;;;;;5075278;28;20472;-80
2022/11/13 01:03:55;;;;;;;33.30;10.47;;;6.20;1.00;;;;;;5077253;28;20625;-80
2022/11/13 01:06:26;;;;;;;43.70;11.23;;;6.30;1.00;;;;;;5073230;28;20437;-80
2022/11/13 01:08:58;;;;;;;49.97;10.20;;;6.20;1.00;;;;;;5073905;28;20613;-80
2022/11/13 01:11:36;;;;;;;22.20;10.00;;;6.20;1.00;;;;;;5074442;28;20436;-80
2022/11/13 01:14:47;;;;;;;22.33;9.83;;;6.30;1.00;;;;;;5083534;28;20561;-82
2022/11/13 01:20:42;;;;;;;77.50;10.30;;;6.20;1.00;;;;;;5076484;28;20454;-82
2022/11/13 01:23:29;;;;;;;19.43;9.40;;;6.20;1.00;;;;;;5095886;28;20935;-83
2022/11/13 01:26:08;;;;;;;38.83;10.10;;;6.10;1.00;;;;;;5087164;28;20420;-83
2022/11/13 01:28:43;;;;;;;43.93;9.93;;;6.10;1.00;;;;;;5076280;28;20452;-83
2022/11/13 01:31:15;;;;;;;29.63;9.90;;;6.10;1.00;;;;;;5089930;28;20423;-80
2022/11/13 01:34:00;;;;;;;23.03;9.97;;;6.10;1.00;;;;;;5087182;28;20432;-80
2022/11/13 01:36:27;;;;;;;49.57;10.50;;;6.10;1.00;;;;;;5077835;28;20417;-80
2022/11/13 01:39:00;;;;;;;49.87;11.23;;;6.00;1.00;;;;;;5088069;28;20412;-80
2022/11/13 01:41:32;;;;;;;71.87;10.67;;;6.10;1.00;;;;;;5077093;28;20409;-80
2022/11/13 01:44:05;;;;;;;31.27;10.43;;;6.10;1.00;;;;;;5076000;28;20440;-82
2022/11/13 01:46:59;;;;;;;41.20;10.63;;;6.00;1.00;;;;;;5082680;28;20439;-80
2022/11/13 01:49:44;;;;;;;36.73;11.00;;;6.10;1.00;;;;;;5088186;28;20472;-80
2022/11/13 01:52:41;;;;;;;37.47;10.10;;;6.00;1.00;;;;;;5082241;28;20462;-80
2022/11/13 01:55:35;;;;;;;40.33;9.90;;;6.00;1.00;;;;;;5095629;28;20430;-80
2022/11/13 01:58:08;;;;;;;46.60;10.53;;;5.90;1.00;;;;;;5080997;28;20433;-80
2022/11/13 02:00:53;;;;;;;44.57;10.00;;;5.90;1.00;;;;;;5088704;28;20437;-82
2022/11/13 02:03:30;;;;;;;40.87;11.47;;;5.80;1.00;;;;;;5088239;28;20779;-84
2022/11/13 02:06:00;;;;;;;41.60;9.70;;;5.80;1.00;;;;;;5087870;28;20416;-83
2022/11/13 02:08:30;;;;;;;31.73;9.73;;;5.80;1.00;;;;;;5077593;28;20472;-83
2022/11/13 02:11:29;;;;;;;36.10;9.50;;;5.80;1.00;;;;;;5086273;28;20563;-83
2022/11/13 02:14:01;;;;;;;34.20;9.40;;;5.70;1.00;;;;;;5075185;28;20489;-83
2022/11/13 02:16:38;;;;;;;17.73;9.40;;;5.70;1.00;;;;;;5075921;28;20416;-82
2022/11/13 02:19:53;;;;;;;54.23;10.93;;;5.70;1.00;;;;;;5087156;28;20446;-83
2022/11/13 02:22:59;;;;;;;36.97;10.60;;;5.60;1.00;;;;;;5075704;28;20437;-83
2022/11/13 02:25:59;;;;;;;19.13;9.90;;;5.50;1.00;;;;;;5075477;28;20891;-83
2022/11/13 02:28:42;;;;;;;20.10;9.70;;;5.50;1.00;;;;;;5075140;28;20493;-83
2022/11/13 02:31:10;;;;;;;35.43;9.10;;;5.40;1.00;;;;;;5076876;28;20485;-81
2022/11/13 02:33:36;;;;;;;33.07;10.87;;;5.30;1.00;;;;;;5077969;28;20912;-81
2022/11/13 02:36:20;;;;;;;27.30;10.40;;;5.30;1.00;;;;;;5075127;28;20433;-80
2022/11/13 02:38:46;;;;;;;45.13;10.40;;;5.30;1.00;;;;;;5084846;28;20273;-80
2022/11/13 02:41:12;;;;;;;60.43;10.00;;;5.30;1.00;;;;;;5091104;28;20413;-80
2022/11/13 02:43:59;;;;;;;60.50;10.40;;;5.20;1.00;;;;;;5076945;28;20791;-80
2022/11/13 02:46:25;;;;;;;30.20;10.23;;;5.20;1.00;;;;;;5080470;28;20216;-80
2022/11/13 02:49:00;;;;;;;97.93;12.40;;;5.10;1.00;;;;;;5081319;28;20492;-80
2022/11/13 02:51:59;;;;;;;44.53;10.30;;;5.00;1.00;;;;;;5082508;28;20162;-80
2022/11/13 02:54:30;;;;;;;91.80;11.20;;;5.00;1.00;;;;;;5090612;28;20447;-80
2022/11/13 02:57:29;;;;;;;57.00;10.80;;;5.00;1.00;;;;;;5077111;28;20440;-80
2022/11/13 02:59:55;;;;;;;31.83;10.07;;;5.00;1.00;;;;;;5095212;28;20408;-82
2022/11/13 03:02:21;;;;;;;45.73;10.60;;;4.90;1.00;;;;;;5081281;28;20524;-83
2022/11/13 03:05:00;;;;;;;23.13;8.87;;;4.80;1.00;;;;;;5093609;28;20416;-82
2022/11/13 03:07:30;;;;;;;20.00;9.07;;;4.80;1.00;;;;;;5088166;28;20187;-83
2022/11/13 03:10:29;;;;;;;18.67;8.67;;;4.90;1.00;;;;;;5088152;28;20452;-83
2022/11/13 03:16:59;;;;;;;24.83;9.33;;;4.90;1.00;;;;;;5075045;28;20452;-83
2022/11/13 03:19:30;;;;;;;21.50;9.87;;;4.90;1.00;;;;;;5083474;28;20408;-83
2022/11/13 03:22:00;;;;;;;22.30;9.70;;;4.90;1.00;;;;;;5089502;28;20947;-83
2022/11/13 03:24:47;;;;;;;22.23;9.80;;;4.90;1.00;;;;;;5083051;28;20908;-83
2022/11/13 03:27:13;;;;;;;32.77;10.13;;;4.90;1.00;;;;;;5081706;28;20481;-82
2022/11/13 03:30:06;;;;;;;14.00;8.87;;;4.80;1.00;;;;;;5087553;28;20481;-83
2022/11/13 03:32:31;;;;;;;32.03;10.60;;;4.90;1.00;;;;;;5074466;28;20973;-83
2022/11/13 03:35:00;;;;;;;36.20;9.27;;;4.80;1.00;;;;;;5077723;28;20424;-83
2022/11/13 03:37:30;;;;;;;44.17;10.55;;;4.80;1.00;;;;;;5083272;28;20638;-83
2022/11/13 03:40:00;;;;;;;32.07;9.73;;;4.80;1.00;;;;;;5080341;28;20266;-83
2022/11/13 03:42:30;;;;;;;42.57;9.23;;;4.80;1.00;;;;;;5079905;28;20524;-82
2022/11/13 03:44:56;;;;;;;29.23;9.37;;;4.80;1.00;;;;;;5088936;28;20771;-83
2022/11/13 03:47:30;;;;;;;35.53;9.67;;;4.70;1.00;;;;;;5086130;28;20515;-80
2022/11/13 03:50:00;;;;;;;34.33;9.97;;;4.80;1.00;;;;;;5075953;28;20210;-80
2022/11/13 03:52:30;;;;;;;26.77;8.45;;;4.70;1.00;;;;;;5073474;28;20424;-81
2022/11/13 03:55:00;;;;;;;56.92;11.57;;;4.70;1.00;;;;;;5081638;28;20649;-80
2022/11/13 03:57:31;;;;;;;42.83;10.83;;;4.60;1.00;;;;;;5078536;28;20265;-80
2022/11/13 04:00:00;;;;;;;40.07;10.27;;;4.60;1.00;;;;;;5082817;28;20451;-80
2022/11/13 04:02:30;;;;;;;40.90;10.90;;;4.60;1.00;;;;;;5077419;28;20860;-83
2022/11/13 04:05:00;;;;;;;14.83;8.47;;;4.50;1.00;;;;;;5073498;28;20418;-83
2022/11/13 04:07:30;;;;;;;33.97;10.33;;;4.50;1.00;;;;;;5087806;28;20429;-83
2022/11/13 04:10:00;;;;;;;14.60;9.35;;;4.50;1.00;;;;;;5072330;28;21044;-83
2022/11/13 04:12:25;;;;;;;10.87;8.23;;;4.50;1.00;;;;;;5076608;28;20209;-83
2022/11/13 04:15:00;;;;;;;21.60;8.73;;;4.50;1.00;;;;;;5073776;28;20865;-83
2022/11/13 04:17:30;;;;;;;16.90;8.00;;;4.50;1.00;;;;;;5072467;28;20233;-80
2022/11/13 04:20:00;;;;;;;18.93;7.80;;;4.50;1.00;;;;;;5083563;28;20408;-80
2022/11/13 04:22:30;;;;;;;30.07;8.40;;;4.50;1.00;;;;;;5073837;28;20429;-80
2022/11/13 04:25:00;;;;;;;26.80;9.60;;;4.50;1.00;;;;;;5083103;28;20420;-80
2022/11/13 04:27:30;;;;;;;17.80;8.50;;;4.50;1.00;;;;;;5078142;28;20179;-80
2022/11/13 04:30:00;;;;;;;27.90;9.90;;;4.40;1.00;;;;;;5085698;28;20978;-80
2022/11/13 04:32:31;;;;;;;31.13;8.70;;;4.30;1.00;;;;;;5074322;28;20413;-80
2022/11/13 04:35:00;;;;;;;43.88;9.10;;;4.30;1.00;;;;;;5073174;28;20386;-80
2022/11/13 04:37:30;;;;;;;49.33;9.83;;;4.20;1.00;;;;;;5078521;28;20576;-80
2022/11/13 04:40:00;;;;;;;26.58;9.40;;;4.20;1.00;;;;;;5073020;28;20406;-80
2022/11/13 04:42:48;;;;;;;16.30;8.80;;;4.20;1.00;;;;;;5090980;28;20186;-80
2022/11/13 04:45:26;;;;;;;12.15;7.97;;;4.10;1.00;;;;;;5073401;28;20424;-80
2022/11/13 04:48:00;;;;;;;12.07;8.27;;;4.00;1.00;;;;;;5091304;28;20262;-83
2022/11/13 04:50:26;;;;;;;11.77;8.05;;;3.90;1.00;;;;;;5081542;28;20174;-83
2022/11/13 04:52:54;;;;;;;13.77;8.60;;;3.80;1.00;;;;;;5079430;28;20206;-83
2022/11/13 04:55:36;;;;;;;11.13;8.15;;;3.80;1.00;;;;;;5076915;28;20646;-84
2022/11/13 04:58:35;;;;;;;11.80;7.50;;;3.70;1.00;;;;;;5075792;28;20193;-83
2022/11/13 05:04:41;;;;;;;11.88;8.40;;;3.50;1.00;;;;;;5088687;28;20270;-83
2022/11/13 05:07:18;;;;;;;9.35;7.60;;;3.50;1.00;;;;;;5082291;28;20499;-84
2022/11/13 05:10:00;;;;;;;10.20;8.10;;;3.40;1.00;;;;;;5076958;28;20281;-89
2022/11/13 05:12:25;;;;;;;11.60;8.13;;;3.30;1.00;;;;;;5084786;28;20189;-83
2022/11/13 05:15:17;;;;;;;8.30;7.23;;;3.30;1.00;;;;;;5081690;28;20274;-83
2022/11/13 05:18:00;;;;;;;12.45;7.80;;;3.20;1.00;;;;;;5077011;28;20156;-81
2022/11/13 05:20:26;;;;;;;11.88;7.97;;;3.10;1.00;;;;;;5083169;28;20201;-80
2022/11/13 05:26:13;;;;;;;13.88;7.25;;;3.10;1.00;;;;;;5077489;28;20185;-80
2022/11/13 05:28:59;;;;;;;9.37;7.00;;;3.00;1.00;;;;;;5075185;28;20297;-80
2022/11/13 05:31:42;;;;;;;11.95;7.75;;;3.00;1.00;;;;;;5078486;28;20723;-83
2022/11/13 05:37:36;;;;;;;9.57;6.88;;;2.90;1.00;;;;;;5081836;28;20201;-83
2022/11/13 05:40:06;;;;;;;10.40;7.93;;;2.90;1.00;;;;;;5074750;28;20179;-83
2022/11/13 05:42:32;;;;;;;10.25;7.32;;;2.80;1.00;;;;;;5077836;28;20178;-83
2022/11/13 05:45:41;;;;;;;10.10;7.57;;;2.80;1.00;;;;;;5086266;28;20240;-82
2022/11/13 05:51:32;;;;;;;10.85;7.80;;;2.70;1.00;;;;;;5085153;28;20182;-83
2022/11/13 05:54:53;;;;;;;10.07;7.57;;;2.60;1.00;;;;;;5080601;28;20203;-83
2022/11/13 06:01:07;;;;;;;11.88;8.20;;;2.50;1.00;;;;;;5086421;28;20658;-83
2022/11/13 06:03:55;;;;;;;11.55;7.65;;;2.50;1.00;;;;;;5076267;28;20587;-83
2022/11/13 06:06:26;;;;;;;14.65;8.55;;;2.40;1.00;;;;;;5085255;28;20170;-83
2022/11/13 06:08:53;;;;;;;8.20;6.72;;;2.40;1.00;;;;;;5080290;28;20210;-83
2022/11/13 06:14:42;;;;;;;11.30;7.93;;;2.30;1.00;;;;;;5083756;28;20668;-83
2022/11/13 06:17:12;;;;;;;11.00;8.07;;;2.30;1.00;;;;;;5079099;28;20702;-80
2022/11/13 06:19:48;;;;;;;23.08;9.50;;;2.20;1.00;;;;;;5075083;28;20554;-80
2022/11/13 06:22:14;;;;;;;10.27;7.28;;;2.20;1.00;;;;;;5078567;28;20645;-74
2022/11/13 06:25:06;;;;;;;13.20;8.17;;;2.20;1.00;;;;;;5084666;28;20201;-82
2022/11/13 06:27:42;;;;;;;10.80;8.50;;;2.10;1.00;;;;;;5087354;28;20178;-80
2022/11/13 06:30:29;;;;;;;10.43;7.75;;;2.10;1.00;;;;;;5085188;28;20251;-81
2022/11/13 06:33:06;;;;;;;11.90;8.20;;;2.10;1.00;;;;;;5091408;28;20235;-85
2022/11/13 06:35:42;;;;;;;9.57;7.60;;;2.10;1.00;;;;;;5076198;28;20532;-80
2022/11/13 06:38:31;;;;;;;10.65;7.45;;;2.00;1.00;;;;;;5079540;28;20633;-87
2022/11/13 06:41:30;;;;;;;12.77;7.60;;;2.00;1.00;;;;;;5079890;28;20261;-83
2022/11/13 06:43:57;;;;;;;10.23;7.25;;;2.00;1.00;;;;;;5073919;28;20185;-86
2022/11/13 06:46:48;;;;;;;11.68;8.43;;;1.90;1.00;;;;;;5074274;28;20167;-86
2022/11/13 06:49:18;;;;;;;14.00;8.60;;;1.90;1.00;;;;;;5073554;28;20203;-80
2022/11/13 06:51:44;;;;;;;12.70;8.10;;;2.00;1.00;;;;;;5086065;28;20193;-79
2022/11/13 06:54:29;;;;;;;14.67;8.17;;;2.00;1.00;;;;;;5087899;28;20179;-79
2022/11/13 06:56:55;;;;;;;11.90;8.20;;;2.00;2.70;;;;;;5093623;28;20217;-79
2022/11/13 06:59:30;;;;;;;12.67;8.67;;;2.00;4.00;;;;;;5074584;28;20186;-78
2022/11/13 07:02:12;;;;;;;11.93;8.80;;;2.00;4.90;;;;;;5073357;28;20691;-79
2022/11/13 07:05:17;;;;;;;14.73;8.30;;;2.10;6.60;;;;;;5091191;28;20525;-84
2022/11/13 07:11:06;;;;;;;12.45;8.35;;;2.20;8.10;;;;;;5074990;28;20266;-83
2022/11/13 07:13:48;;;;;;;11.77;7.53;;;2.20;7.00;;;;;;5080750;28;20190;-84
2022/11/13 07:16:24;;;;;;;16.33;8.05;;;2.30;4.30;;;;;;5079328;28;20191;-87
2022/11/13 07:18:53;;;;;;;10.18;7.85;;;2.30;1.00;;;;;;5082631;28;20648;-84
2022/11/13 07:28:53;;;;;;;9.88;7.85;;;2.30;1.00;;;;;;5087707;28;20301;-83
2022/11/13 07:31:41;;;;;;;25.55;7.90;;;2.40;1.00;;;;;;5088812;28;20334;-84
2022/11/13 07:34:24;;;;;;;10.95;7.55;;;2.40;1.90;;;;;;5075086;28;20179;-80
2022/11/13 07:37:06;;;;;;;12.55;7.72;;;2.50;3.20;;;;;;5073951;28;20567;-80
2022/11/13 07:39:53;;;;;;;11.38;8.32;;;2.50;5.30;;;;;;5085143;28;20189;-80
2022/11/13 07:42:30;;;;;;;10.90;7.60;;;2.60;6.10;;;;;;5077523;28;20174;-80
2022/11/13 07:44:56;;;;;;;9.85;8.43;;;2.60;7.70;;;;;;5069375;28;20544;-80
2022/11/13 07:50:43;;;;;;;14.40;8.30;;;2.70;11.10;;;;;;5079097;28;20214;-84
2022/11/13 07:53:20;;;;;;;12.93;9.63;;;2.90;11.30;;;;;;5072332;28;20650;-84
2022/11/13 07:56:02;;;;;;;14.77;10.63;;;2.90;12.50;;;;;;5074514;28;20913;-83
2022/11/13 07:58:28;;;;;;;13.95;9.85;;;3.00;13.80;;;;;;5084574;28;20187;-84
2022/11/13 08:01:42;;;;;;;13.48;9.70;;;3.10;14.20;;;;;;5083179;28;20207;-84
2022/11/13 08:04:12;;;;;;;11.00;8.70;;;3.30;16.10;;;;;;5081496;28;20220;-80
2022/11/13 08:06:48;;;;;;;13.77;8.68;;;3.40;16.50;;;;;;5076775;28;20175;-80
2022/11/13 08:09:18;;;;;;;12.07;8.90;;;3.50;17.30;;;;;;5127593;27;20221;-80
2022/11/13 08:11:48;;;;;;;12.57;8.93;;;3.60;18.20;;;;;;5090752;28;20938;-80
2022/11/13 08:14:18;;;;;;;10.93;8.35;;;3.70;19.40;;;;;;5076868;28;20190;-80
2022/11/13 08:17:12;;;;;;;17.08;9.43;;;3.80;22.50;;;;;;5085972;28;20645;-80
2022/11/13 08:20:06;;;;;;;13.00;8.77;;;4.00;23.80;;;;;;5072943;28;20191;-84
2022/11/13 08:23:01;;;;;;;12.02;9.18;;;4.20;25.80;;;;;;5081880;28;20599;-84
2022/11/13 08:25:48;;;;;;;13.60;8.40;;;4.30;26.20;;;;;;5074181;28;20174;-84
2022/11/13 08:28:18;;;;;;;19.50;8.68;;;4.50;23.60;;;;;;5072324;28;20504;-84
2022/11/13 08:31:08;;;;;;;11.70;8.23;;;4.60;23.90;;;;;;5086219;28;20248;-84
2022/11/13 08:33:48;;;;;;;12.97;9.47;;;4.70;23.70;;;;;;5088111;28;20266;-81
2022/11/13 08:36:42;;;;;;;13.37;9.17;;;4.80;24.50;;;;;;5089310;28;20818;-80
2022/11/13 08:39:30;;;;;;;12.03;9.33;;;5.00;27.50;;;;;;5085653;28;20422;-80
2022/11/13 08:42:02;;;;;;;13.00;8.87;;;5.20;27.80;;;;;;5074057;28;20738;-81
2022/11/13 08:44:30;;;;;;;10.33;8.77;;;5.30;28.40;;;;;;5077585;28;22296;-80
2022/11/13 08:46:57;;;;;;;13.47;9.97;;;5.40;28.70;;;;;;5072753;28;20441;-81
2022/11/13 08:53:18;;;;;;;15.80;10.67;;;5.70;29.10;;;;;;5073047;28;20424;-84
2022/11/13 08:55:48;;;;;;;14.47;9.50;;;5.80;28.10;;;;;;5079421;28;20432;-84
2022/11/13 08:58:48;;;;;;;13.97;9.23;;;6.00;26.20;;;;;;5078518;28;20422;-84
2022/11/13 09:01:30;;;;;;;12.63;9.40;;;6.10;22.30;;;;;;5073142;28;20420;-84
2022/11/13 09:04:06;;;;;;;10.33;8.30;;;6.20;19.40;;;;;;5083362;28;20417;-84
2022/11/13 09:09:54;;;;;;;13.30;8.80;;;6.40;16.60;;;;;;5074435;28;20538;-85
2022/11/13 09:12:48;;;;;;;14.40;9.23;;;6.60;15.40;;;;;;5077472;28;20939;-83
2022/11/13 09:15:13;;;;;;;12.33;8.83;;;6.60;13.20;;;;;;5093471;28;20178;-84
2022/11/13 09:18:01;;;;;;;14.20;8.03;;;6.80;11.50;;;;;;5081915;28;20486;-84
2022/11/13 09:21:12;;;;;;;13.43;8.67;;;6.90;7.30;;;;;;5091647;28;20182;-84
2022/11/13 09:23:54;;;;;;;11.40;8.53;;;7.00;6.50;;;;;;5090878;28;20509;-83
2022/11/13 09:26:24;;;;;;;9.93;8.10;;;7.20;5.60;;;;;;5090643;28;20392;-83
2022/11/13 09:28:55;;;;;;;9.70;7.50;;;7.30;3.80;;;;;;5071734;28;20923;-83
2022/11/13 09:31:30;;;;;;;9.47;7.67;;;7.40;3.60;;;;;;5077581;28;20421;-85
2022/11/13 09:34:00;;;;;;;11.20;8.37;;;7.50;1.00;;;;;;5076657;28;20421;-82
2022/11/13 09:36:30;;;;;;;11.03;7.23;;;7.60;1.00;;;;;;5078620;28;20528;-82
2022/11/13 09:39:31;;;;;;;9.70;6.70;;;7.70;1.00;;;;;;5084050;28;20428;-84
2022/11/13 09:42:23;;;;;;;12.13;7.47;;;7.80;1.00;;;;;;5085149;28;20423;-81
2022/11/13 09:45:03;;;;;;;10.20;6.83;;;7.80;1.00;;;;;;5083255;28;20420;-81
2022/11/13 09:47:46;;;;;;;9.60;6.57;;;7.90;1.00;;;;;;5085676;28;20425;-81
2022/11/13 09:50:26;;;;;;;10.57;6.27;;;8.00;1.00;;;;;;5076398;28;20839;-83
2022/11/13 09:52:54;;;;;;;8.80;6.30;;;8.20;1.00;;;;;;5083221;28;20412;-83
2022/11/13 09:55:39;;;;;;;8.47;6.40;;;8.30;1.00;;;;;;5086153;28;20433;-83
2022/11/13 09:58:39;;;;;;;7.30;5.90;;;8.30;1.00;;;;;;5090290;28;20507;-83
2022/11/13 10:01:26;;;;;;;8.20;6.00;;;8.40;1.00;;;;;;5080801;28;20460;-83
2022/11/13 10:04:14;;;;;;;8.50;6.30;;;8.50;1.00;;;;;;5076676;28;20504;-82
2022/11/13 10:06:56;;;;;;;9.17;6.50;;;8.60;1.00;;;;;;5080301;28;20874;-79
2022/11/13 10:09:57;;;;;;;10.73;6.27;;;8.70;1.00;;;;;;5091321;28;20864;-80
2022/11/13 10:12:43;;;;;;;11.00;7.20;;;8.80;1.00;;;;;;5091624;28;20443;-80
2022/11/13 10:15:15;;;;;;;10.43;6.80;;;8.90;1.00;;;;;;5073841;28;20425;-79
2022/11/13 10:18:05;;;;;;;10.10;6.70;;;9.00;1.00;;;;;;5075799;28;20900;-79
2022/11/13 10:20:48;;;;;;;15.70;6.60;;;9.10;1.00;;;;;;5082070;28;20428;-78
2022/11/13 10:23:30;;;;;;;7.63;6.00;;;9.20;1.00;;;;;;5094365;28;20385;-79
2022/11/13 10:26:06;;;;;;;7.67;6.30;;;9.20;1.00;;;;;;5083279;28;20436;-79
2022/11/13 10:28:32;;;;;;;8.33;6.20;;;9.30;1.00;;;;;;5088752;28;21053;-78
2022/11/13 10:31:13;;;;;;;9.60;6.67;;;9.40;1.00;;;;;;5078170;28;20472;-79
2022/11/13 10:33:39;;;;;;;9.90;7.40;;;9.50;1.00;;;;;;5099702;28;20454;-74
2022/11/13 10:36:29;;;;;;;7.97;6.60;;;9.60;1.00;;;;;;5095076;28;20433;-76
2022/11/13 10:39:25;;;;;;;8.93;6.27;;;9.70;1.00;;;;;;5084414;28;20182;-86
2022/11/13 10:42:31;;;;;;;8.93;6.03;;;9.80;1.00;;;;;;5083182;28;20428;-75
2022/11/13 10:44:59;;;;;;;7.13;5.47;;;10.00;1.00;;;;;;5033118;28;20912;-74
2022/11/13 10:47:31;;;;;;;9.37;5.83;;;10.20;1.00;;;;;;5033027;28;20419;-74
2022/11/13 10:50:08;;;;;;;7.70;5.77;;;10.20;1.00;;;;;;5032737;28;20531;-74
2022/11/13 10:52:44;;;;;;;7.13;5.80;;;10.30;1.00;;;;;;5031835;28;20426;-74
2022/11/13 10:55:38;;;;;;;7.53;5.53;;;10.40;1.00;;;;;;5019323;28;20437;-77
2022/11/13 10:58:25;;;;;;;9.93;5.63;;;10.50;1.00;;;;;;5025535;28;20456;-75
2022/11/13 11:01:11;;;;;;;6.80;5.50;;;10.60;1.00;;;;;;5039562;28;20475;-80
2022/11/13 11:04:04;;;;;;;8.87;5.80;;;10.70;1.00;;;;;;5045898;28;20427;-81
2022/11/13 11:07:13;;;;;;;8.37;5.77;;;10.80;1.00;;;;;;5013844;28;20787;-79
2022/11/13 11:09:41;;;;;;;7.50;6.20;;;10.90;1.00;;;;;;5018586;28;20513;-74
2022/11/13 11:12:22;;;;;;;6.90;5.93;;;11.00;1.00;;;;;;5022304;28;20428;-75
2022/11/13 11:14:55;;;;;;;16.03;6.07;;;11.10;1.00;;;;;;5012773;28;20897;-74
2022/11/13 11:17:45;;;;;;;8.30;6.40;;;11.10;1.00;;;;;;5025315;28;20434;-75
2022/11/13 11:20:28;;;;;;;7.30;6.60;;;11.20;1.00;;;;;;5074773;28;20463;-77
2022/11/13 11:23:01;;;;;;;9.00;5.70;;;11.30;1.00;;;;;;5080484;28;20417;-78
2022/11/13 11:25:41;;;;;;;15.07;6.23;;;11.40;1.00;;;;;;5074150;28;20394;-78
2022/11/13 11:28:39;;;;;;;8.40;6.10;;;11.50;1.00;;;;;;5073786;28;20390;-78
2022/11/13 11:31:43;;;;;;;7.33;6.10;;;11.70;1.00;;;;;;5080316;28;20439;-77
2022/11/13 11:34:39;;;;;;;9.47;5.73;;;11.80;1.00;;;;;;5085838;28;20949;-77
2022/11/13 11:37:14;;;;;;;7.60;6.00;;;11.90;1.00;;;;;;5088100;28;20461;-75
2022/11/13 11:39:46;;;;;;;7.93;6.37;;;12.00;1.00;;;;;;5080728;28;20412;-75
2022/11/13 11:42:36;;;;;;;12.00;6.33;;;12.10;1.00;;;;;;5078796;28;20459;-75
2022/11/13 11:45:25;;;;;;;9.00;6.60;;;12.20;1.00;;;;;;5094267;28;20450;-75
2022/11/13 11:47:58;;;;;;;8.53;6.10;;;12.30;1.00;;;;;;5074743;28;20408;-75
2022/11/13 11:51:00;;;;;;;8.10;6.23;;;12.40;1.00;;;;;;5079938;28;20437;-77
2022/11/13 11:53:40;;;;;;;9.63;6.37;;;12.50;1.00;;;;;;5073339;28;20508;-77
2022/11/13 11:56:14;;;;;;;8.77;6.13;;;12.60;1.00;;;;;;5073123;28;20420;-77
2022/11/13 11:59:05;;;;;;;6.57;5.90;;;12.60;1.00;;;;;;5074715;28;20562;-77
2022/11/13 12:01:45;;;;;;;6.73;5.73;;;12.70;1.00;;;;;;5092794;28;20408;-77
2022/11/13 12:04:21;;;;;;;6.33;5.70;;;12.80;1.00;;;;;;5077987;28;20869;-77
2022/11/13 12:07:04;;;;;;;6.93;5.73;;;12.90;1.00;;;;;;5073973;28;20421;-75
2022/11/13 12:09:35;;;;;;;6.90;6.17;;;12.90;1.00;;;;;;5083653;28;20601;-74
2022/11/13 12:12:38;;;;;;;7.37;5.90;;;13.00;1.00;;;;;;5078813;28;20414;-74
2022/11/13 12:15:28;;;;;;;10.50;6.53;;;13.00;1.00;;;;;;5084723;28;20404;-74
2022/11/13 12:18:14;;;;;;;11.63;5.70;;;13.10;1.00;;;;;;5075143;28;20425;-74
2022/11/13 12:20:58;;;;;;;6.20;5.43;;;13.10;1.00;;;;;;5074121;28;20924;-74
2022/11/13 12:23:52;;;;;;;8.43;5.37;;;13.20;1.00;;;;;;5074338;28;20440;-74
2022/11/13 12:26:43;;;;;;;7.07;5.60;;;13.20;1.00;;;;;;5073706;28;20770;-75
2022/11/13 12:29:59;;;;;;;6.07;4.70;;;13.20;1.00;;;;;;5087202;28;20459;-75
2022/11/13 12:32:43;;;;;;;7.93;4.73;;;13.30;1.00;;;;;;5010873;28;20490;-74
2022/11/13 12:35:29;;;;;;;9.60;4.30;;;13.40;1.00;;;;;;5005426;28;20413;-74
2022/11/13 12:38:06;;;;;;;4.53;4.13;;;13.50;1.00;;;;;;5007180;28;20427;-77
2022/11/13 12:40:43;;;;;;;4.80;4.40;;;13.50;1.00;;;;;;5006364;28;20420;-77
2022/11/13 12:43:43;;;;;;;12.47;4.50;;;13.60;1.00;;;;;;5007194;28;20523;-77
2022/11/13 12:46:11;;;;;;;5.80;4.30;;;13.60;1.00;;;;;;5011560;28;20425;-77
2022/11/13 12:48:45;;;;;;;9.10;4.00;;;13.70;1.00;;;;;;5006570;28;20549;-77
2022/11/13 12:51:15;;;;;;;6.63;4.60;;;13.70;1.00;;;;;;5008504;28;20486;-76
2022/11/13 12:54:23;;;;;;;6.77;4.60;;;13.80;1.00;;;;;;4995059;28;20415;-76
2022/11/13 12:56:49;;;;;;;4.57;4.07;;;13.80;1.00;;;;;;5005628;28;20428;-76
2022/11/13 12:59:45;;;;;;;4.30;3.90;;;13.70;1.00;;;;;;5011508;28;20823;-76
2022/11/13 13:02:32;;;;;;;6.23;3.97;;;13.80;1.00;;;;;;4995673;28;20425;-76
2022/11/13 13:05:06;;;;;;;5.60;4.13;;;13.90;1.00;;;;;;5001686;28;20442;-75
2022/11/13 13:07:54;;;;;;;5.07;4.03;;;13.90;1.00;;;;;;5034610;28;20436;-76
2022/11/13 13:10:44;;;;;;;4.77;4.30;;;13.90;1.00;;;;;;5085868;28;20491;-75
2022/11/13 13:13:23;;;;;;;5.30;4.50;;;14.00;1.00;;;;;;5076905;28;20908;-76
2022/11/13 13:16:01;;;;;;;4.97;3.53;;;14.10;1.00;;;;;;5093909;28;20518;-76
2022/11/13 13:18:43;;;;;;;10.33;3.90;;;14.10;1.00;;;;;;5086350;28;20435;-76
2022/11/13 13:21:12;;;;;;;4.10;3.70;;;14.10;1.00;;;;;;5091596;28;20493;-74
2022/11/13 13:23:44;;;;;;;4.20;3.80;;;14.20;1.00;;;;;;5082272;28;20834;-74
2022/11/13 13:26:19;;;;;;;5.67;3.97;;;14.20;1.00;;;;;;5081903;28;20531;-74
2022/11/13 13:29:31;;;;;;;5.83;4.50;;;14.20;1.00;;;;;;5093391;28;20448;-74
2022/11/13 13:32:19;;;;;;;7.60;4.40;;;14.30;1.00;;;;;;5076305;28;20904;-74
2022/11/13 13:35:03;;;;;;;5.50;4.20;;;14.30;1.00;;;;;;5085400;28;20424;-73
2022/11/13 13:37:48;;;;;;;7.23;4.33;;;14.30;1.00;;;;;;5075446;28;20417;-76
2022/11/13 13:40:33;;;;;;;5.83;4.47;;;14.30;1.00;;;;;;5085972;28;20396;-76
2022/11/13 13:43:25;;;;;;;5.60;4.57;;;14.30;1.00;;;;;;5077671;28;20417;-77
2022/11/13 13:46:14;;;;;;;16.33;5.23;;;14.30;1.00;;;;;;5083333;28;20512;-76
2022/11/13 13:48:46;;;;;;;5.47;4.43;;;14.30;1.00;;;;;;5083082;28;20459;-76
2022/11/13 13:51:33;;;;;;;5.20;4.20;;;14.40;1.00;;;;;;5092417;28;20439;-76
2022/11/13 13:54:00;;;;;;;6.67;4.80;;;14.30;1.00;;;;;;5097346;28;20781;-76
2022/11/13 13:56:33;;;;;;;5.37;4.20;;;14.30;1.00;;;;;;5107893;28;20515;-75
2022/11/13 13:59:00;;;;;;;6.57;4.67;;;14.20;1.00;;;;;;5076064;28;20392;-75
2022/11/13 14:01:31;;;;;;;5.70;4.53;;;14.20;1.00;;;;;;5075990;28;20920;-76
2022/11/13 14:04:22;;;;;;;7.93;5.03;;;14.20;1.00;;;;;;5093105;28;20420;-74
2022/11/13 14:06:50;;;;;;;4.70;4.20;;;14.20;1.00;;;;;;5087066;28;20437;-74
2022/11/13 14:09:33;;;;;;;6.03;4.50;;;14.10;1.00;;;;;;5084366;28;20547;-74
2022/11/13 14:12:05;;;;;;;5.10;4.30;;;14.10;1.00;;;;;;5085448;28;20466;-74
2022/11/13 14:14:31;;;;;;;7.90;4.40;;;14.10;1.00;;;;;;5083930;28;20421;-74
2022/11/13 14:16:59;;;;;;;5.47;4.60;;;14.10;1.00;;;;;;5085380;28;20445;-74
2022/11/13 14:19:25;;;;;;;5.60;4.37;;;14.10;1.00;;;;;;5085838;28;20413;-74
2022/11/13 14:21:59;;;;;;;6.77;4.50;;;14.00;1.00;;;;;;5077438;28;20421;-74
2022/11/13 14:24:39;;;;;;;6.13;4.73;;;14.00;1.00;;;;;;5081492;28;20460;-74
2022/11/13 14:27:07;;;;;;;5.07;4.43;;;14.00;1.00;;;;;;5084717;28;20424;-74
2022/11/13 14:29:45;;;;;;;5.50;4.70;;;14.00;1.00;;;;;;5086011;28;20452;-74
2022/11/13 14:32:33;;;;;;;6.17;4.90;;;13.90;1.00;;;;;;5084397;28;20412;-74
2022/11/13 14:35:01;;;;;;;6.07;4.30;;;13.90;1.00;;;;;;5089055;28;20432;-74
2022/11/13 14:37:34;;;;;;;18.73;4.40;;;13.80;1.00;;;;;;5082625;28;20439;-75
2022/11/13 14:40:27;;;;;;;6.73;4.57;;;13.70;1.00;;;;;;5081078;28;20416;-75
2022/11/13 14:43:04;;;;;;;8.93;4.40;;;13.60;1.00;;;;;;5092963;28;20400;-78
2022/11/13 14:45:31;;;;;;;6.43;4.00;;;13.50;1.00;;;;;;5088787;28;20421;-74
2022/11/13 14:48:17;;;;;;;4.33;3.77;;;13.40;1.00;;;;;;5081221;28;20538;-74
2022/11/13 14:50:56;;;;;;;4.90;4.40;;;13.30;1.00;;;;;;5084996;28;20430;-74
2022/11/13 14:53:36;;;;;;;4.93;4.37;;;13.20;1.00;;;;;;5090811;28;20903;-73
2022/11/13 14:56:10;;;;;;;8.33;3.87;;;13.10;1.00;;;;;;5079531;28;20512;-74